Commodore Clipper — C6QQ3 — position and weather

sailwx.info

Track history (hours):
 
Tides and Currents Weather Stations Pressure Air Temp Water Temp Dewpoint Dewpoint Depression Visibility Wind Speed Wind Dir Waves Ship Positions

Commodore Clipper

Operator: Condor Marine Services

Last reported at 2018-May-22 06:00 UTC. Time now 2018-May-22 06:27 UTC.
Position N 50°49' W 001°06'.

Length 130 m; draft 5.6 m.

Type: Ship. MMSI: 308094000.

Date/timePositionNaut miles runAvg speedWind from/ knotsBaromVisibWave heightAir tempDewpointWater temp
2018-May-22 06:00N 50°49' W 001°06'0 0.0
2018-May-22 05:30N 50°49' W 001°06'1 2.9
2018-May-22 05:01N 50°47' W 001°07'714.0
2018-May-22 04:30N 50°41' W 001°03'815.7
2018-May-22 04:00N 50°34' W 001°10'916.4
2018-May-22 03:29N 50°27' W 001°18'817.2
2018-May-22 03:00N 50°22' W 001°27'815.2
2018-May-22 02:30N 50°15' W 001°33'612.2
2018-May-22 02:00N 50°09' W 001°37'713.5
2018-May-22 01:30N 50°04' W 001°43'713.9
2018-May-22 01:00N 49°58' W 001°49'714.3
2018-May-22 00:31N 49°52' W 001°55'914.7
2018-May-21 23:53N 49°44' W 002°02'718.5
2018-May-21 23:30N 49°38' W 002°07'918.4
2018-May-21 23:00N 49°29' W 002°12'918.4
2018-May-21 22:31N 49°21' W 002°17'12 3.5
2018-May-21 18:57N 49°11' W 002°07'6 6.4
2018-May-21 18:03N 49°10' W 002°16'1 8.0
2018-May-21 17:55N 49°10' W 002°17'716.8
2018-May-21 17:30N 49°16' W 002°22'917.5
2018-May-21 17:00N 49°24' W 002°28'4 8.2
2018-May-21 16:30N 49°27' W 002°32'0 0.0
2018-May-21 16:00N 49°27' W 002°32'0 0.0
2018-May-21 15:30N 49°27' W 002°32'3 6.8
2018-May-21 14:59N 49°26' W 002°27'817.8
2018-May-21 14:31N 49°31' W 002°16'916.3
2018-May-21 13:58N 49°38' W 002°08'815.0
2018-May-21 13:26N 49°45' W 002°02'614.2
2018-May-21 13:00N 49°50' W 001°58'714.2
2018-May-21 12:30N 49°56' W 001°51'714.8
2018-May-21 12:00N 50°02' W 001°44'815.3
2018-May-21 11:30N 50°08' W 001°37'815.8
2018-May-21 11:00N 50°14' W 001°30'1316.4
2018-May-21 10:14N 50°25' W 001°19'416.4
2018-May-21 09:59N 50°28' W 001°14'816.8
2018-May-21 09:31N 50°34' W 001°07'815.8
2018-May-21 09:00N 50°41' W 001°01'714.7
2018-May-21 08:31N 50°47' W 001°07'1 2.8
2018-May-21 08:00N 50°49' W 001°06'0 0.0
2018-May-21 07:30N 50°49' W 001°06'0 0.0
2018-May-21 07:00N 50°49' W 001°06'0 0.0
2018-May-21 06:30N 50°49' W 001°06'0 0.0
2018-May-21 06:00N 50°49' W 001°06'0 0.0
2018-May-21 05:30N 50°49' W 001°06'0 0.0
2018-May-21 05:00N 50°49' W 001°06'0 0.0
2018-May-21 04:30N 50°49' W 001°06'0 0.0
2018-May-21 04:00N 50°49' W 001°06'0 0.0
2018-May-21 03:30N 50°49' W 001°06'0 0.0
2018-May-21 03:00N 50°49' W 001°06'0 0.0
2018-May-21 02:30N 50°49' W 001°06'0 0.0
2018-May-21 02:00N 50°49' W 001°06'0 0.0
2018-May-21 01:30N 50°49' W 001°06'0 0.0
2018-May-21 01:00N 50°49' W 001°06'0 0.0
2018-May-21 00:30N 50°49' W 001°06'0 0.0
2018-May-21 00:00N 50°49' W 001°06'0 0.0
2018-May-20 23:30N 50°49' W 001°06'0 0.0
2018-May-20 23:00N 50°49' W 001°06'0 0.0
2018-May-20 22:30N 50°49' W 001°06'0 0.0
2018-May-20 22:00N 50°49' W 001°06'0 0.0
2018-May-20 21:30N 50°49' W 001°06'0 0.0
2018-May-20 21:00N 50°49' W 001°06'0 0.0
2018-May-20 20:30N 50°49' W 001°06'0 0.0
2018-May-20 20:00N 50°49' W 001°06'0 0.0
2018-May-20 19:30N 50°49' W 001°06'0 0.0
2018-May-20 19:00N 50°49' W 001°06'0 0.0
2018-May-20 18:30N 50°49' W 001°06'0 0.0
2018-May-20 18:00N 50°49' W 001°06'0 0.0
2018-May-20 17:30N 50°49' W 001°06'0 0.0
2018-May-20 17:00N 50°49' W 001°06'0 0.0
2018-May-20 16:30N 50°49' W 001°06'0 0.0
2018-May-20 16:00N 50°49' W 001°06'0 0.0
2018-May-20 15:30N 50°49' W 001°06'0 0.0
2018-May-20 15:00N 50°49' W 001°06'0 0.0
2018-May-20 14:30N 50°49' W 001°06'0 0.0
2018-May-20 14:00N 50°49' W 001°06'0 0.0
2018-May-20 13:30N 50°49' W 001°06'0 0.0
2018-May-20 13:00N 50°49' W 001°06'0 0.0
2018-May-20 12:30N 50°49' W 001°06'0 0.0
2018-May-20 12:00N 50°49' W 001°06'0 0.0
2018-May-20 11:30N 50°49' W 001°06'0 0.0
2018-May-20 11:00N 50°49' W 001°06'0 0.0
2018-May-20 10:30N 50°49' W 001°06'0 0.0
2018-May-20 10:00N 50°49' W 001°06'0 0.0
2018-May-20 09:30N 50°49' W 001°06'0 0.0
2018-May-20 09:00N 50°49' W 001°06'0 0.0
2018-May-20 08:30N 50°49' W 001°06'0 0.0
2018-May-20 08:00N 50°49' W 001°06'0 0.0
2018-May-20 07:30N 50°49' W 001°06'0 0.0
2018-May-20 07:00N 50°49' W 001°06'0 0.0
2018-May-20 06:30N 50°49' W 001°06'0 0.0
2018-May-20 06:00N 50°49' W 001°06'0 0.0
2018-May-20 05:30N 50°49' W 001°06'2 3.8
2018-May-20 05:00N 50°47' W 001°06'713.7
2018-May-20 04:31N 50°40' W 001°04'714.6
2018-May-20 04:00N 50°33' W 001°08'713.6
2018-May-20 03:30N 50°29' W 001°17'611.4
2018-May-20 03:00N 50°24' W 001°22'611.6
2018-May-20 02:30N 50°19' W 001°26'612.1
2018-May-20 02:01N 50°14' W 001°30'612.7
2018-May-20 01:31N 50°09' W 001°36'713.3
2018-May-20 01:01N 50°03' W 001°41'713.9
2018-May-20 00:31N 49°57' W 001°47'714.4
2018-May-20 00:00N 49°52' W 001°54'815.6
2018-May-19 23:30N 49°45' W 002°01'815.9
2018-May-19 22:59N 49°38' W 002°07'714.8
2018-May-19 22:30N 49°31' W 002°11'815.4
2018-May-19 22:00N 49°24' W 002°15'919.1
2018-May-19 21:31N 49°15' W 002°21'714.1
2018-May-19 21:00N 49°10' W 002°14'5 9.5
2018-May-19 20:30N 49°11' W 002°07'0 0.0
2018-May-19 20:00N 49°11' W 002°07'0 0.0
2018-May-19 19:30N 49°11' W 002°07'0 0.0
2018-May-19 19:00N 49°11' W 002°07'0 0.1
2018-May-19 18:30N 49°11' W 002°07'815.1
2018-May-19 18:00N 49°11' W 002°18'918.7
2018-May-19 17:30N 49°20' W 002°25'917.6
2018-May-19 17:00N 49°27' W 002°31'0 0.8
2018-May-19 16:30N 49°27' W 002°32'0 0.0
2018-May-19 16:00N 49°27' W 002°32'0 0.0
2018-May-19 15:30N 49°27' W 002°32'2 3.2
2018-May-19 15:01N 49°27' W 002°30'816.2
2018-May-19 14:31N 49°30' W 002°18'918.5
2018-May-19 14:00N 49°37' W 002°09'1018.9
2018-May-19 13:29N 49°45' W 002°01'816.7
2018-May-19 13:00N 49°52' W 001°54'815.9
2018-May-19 12:31N 49°58' W 001°47'815.6
2018-May-19 12:00N 50°06' W 001°42'815.2
2018-May-19 11:31N 50°12' W 001°36'714.3
2018-May-19 11:00N 50°17' W 001°28'714.4
2018-May-19 10:31N 50°22' W 001°20'714.8
2018-May-19 10:00N 50°28' W 001°13'714.3
2018-May-19 09:30N 50°34' W 001°07'715.1
2018-May-19 09:00N 50°40' W 001°00'713.4
2018-May-19 08:30N 50°46' W 001°06'2 4.7
2018-May-19 08:00N 50°49' W 001°06'0 0.0
2018-May-19 07:30N 50°49' W 001°06'0 0.0
2018-May-19 07:00N 50°49' W 001°06'0 0.0
2018-May-19 06:30N 50°49' W 001°06'0 0.0
2018-May-19 06:00N 50°49' W 001°06'0 0.0
2018-May-19 05:30N 50°49' W 001°06'1 3.0
2018-May-19 05:01N 50°47' W 001°07'713.7
2018-May-19 04:31N 50°41' W 001°03'714.2
2018-May-19 04:01N 50°35' W 001°09'713.9
2018-May-19 03:30N 50°29' W 001°15'612.8
2018-May-19 03:00N 50°24' W 001°21'510.9
2018-May-19 02:30N 50°20' W 001°25'510.9
2018-May-19 02:00N 50°15' W 001°30'510.6
2018-May-19 01:30N 50°10' W 001°34'612.5
2018-May-19 01:00N 50°05' W 001°39'713.4
2018-May-19 00:30N 49°60' W 001°46'713.7
2018-May-19 00:00N 49°54' W 001°51'815.3
2018-May-18 23:31N 49°48' W 001°58'917.2
2018-May-18 22:58N 49°40' W 002°06'1018.6
2018-May-18 22:26N 49°31' W 002°11'819.4
2018-May-18 22:00N 49°23' W 002°16'918.8
2018-May-18 21:30N 49°14' W 002°21'816.4
2018-May-18 21:01N 49°10' W 002°10'2 2.9
2018-May-18 20:14N 49°11' W 002°07'0 0.0
2018-May-18 19:56N 49°11' W 002°07'0 0.0
2018-May-18 19:26N 49°11' W 002°07'0 0.1
2018-May-18 18:19N 49°11' W 002°07'411.5
2018-May-18 18:00N 49°10' W 002°12'917.8
2018-May-18 17:31N 49°16' W 002°22'918.5
2018-May-18 17:01N 49°24' W 002°28'4 8.0
2018-May-18 16:29N 49°27' W 002°32'0 0.0
2018-May-18 16:00N 49°27' W 002°32'0 0.0
2018-May-18 15:29N 49°27' W 002°32'1 2.1
2018-May-18 15:00N 49°27' W 002°30'510.3
2018-May-18 14:30N 49°28' W 002°22'1019.5
2018-May-18 14:01N 49°34' W 002°11'1020.9
2018-May-18 13:30N 49°44' W 002°04'918.5
2018-May-18 13:01N 49°52' W 001°56'917.0
2018-May-18 12:30N 49°59' W 001°49'816.2
2018-May-18 12:01N 50°05' W 001°41'815.8
2018-May-18 11:31N 50°11' W 001°34'1215.1
2018-May-18 10:42N 50°21' W 001°22'314.8
2018-May-18 10:30N 50°23' W 001°19'714.8
2018-May-18 10:00N 50°29' W 001°12'714.2
2018-May-18 09:30N 50°35' W 001°06'714.6
2018-May-18 09:01N 50°41' W 001°01'714.9
2018-May-18 08:30N 50°48' W 001°07'1 2.3
2018-May-18 08:00N 50°49' W 001°06'0 0.0
2018-May-18 07:30N 50°49' W 001°06'0 0.0
2018-May-18 07:00N 50°49' W 001°06'0 0.0
2018-May-18 06:30N 50°49' W 001°06'0 0.0
2018-May-18 06:00N 50°49' W 001°06'0 0.0
2018-May-18 05:30N 50°49' W 001°06'2 3.4
2018-May-18 05:00N 50°47' W 001°06'713.0
2018-May-18 04:31N 50°41' W 001°03'714.0
2018-May-18 04:01N 50°35' W 001°08'813.6
2018-May-18 03:25N 50°28' W 001°14'4 9.9
2018-May-18 03:00N 50°24' W 001°16'5 9.0
2018-May-18 02:29N 50°20' W 001°20'4 9.2
2018-May-18 02:00N 50°16' W 001°23'510.1
2018-May-18 01:30N 50°11' W 001°26'612.6
2018-May-18 01:00N 50°06' W 001°31'816.1
2018-May-18 00:30N 50°01' W 001°41'816.8
2018-May-18 00:01N 49°56' W 001°50'917.5
2018-May-17 23:30N 49°49' W 001°59'917.9
2018-May-17 22:59N 49°40' W 002°05'1218.2
2018-May-17 22:21N 49°30' W 002°12'719.0
2018-May-17 21:59N 49°23' W 002°16'1117.3
2018-May-17 21:22N 49°13' W 002°20'617.4
2018-May-17 21:01N 49°10' W 002°11'3 1.1
2018-May-17 18:20N 49°11' W 002°07'2 6.0
2018-May-17 18:00N 49°10' W 002°10'816.2
2018-May-17 17:31N 49°14' W 002°20'918.4
2018-May-17 17:01N 49°22' W 002°27'612.6
2018-May-17 16:30N 49°27' W 002°32'0 0.0
2018-May-17 16:00N 49°27' W 002°32'0 0.0
2018-May-17 15:30N 49°27' W 002°32'0 1.0
2018-May-17 15:00N 49°27' W 002°31'3 5.4
2018-May-17 14:30N 49°25' W 002°28'918.5
2018-May-17 14:00N 49°31' W 002°17'1020.0
2018-May-17 13:30N 49°39' W 002°07'1121.5
2018-May-17 13:00N 49°48' W 001°59'918.5
2018-May-17 12:30N 49°56' W 001°51'917.4
2018-May-17 12:00N 50°03' W 001°43'816.7
2018-May-17 11:30N 50°09' W 001°35'816.1
2018-May-17 11:01N 50°16' W 001°28'815.8
2018-May-17 10:31N 50°22' W 001°21'815.2
2018-May-17 10:01N 50°28' W 001°14'714.3
2018-May-17 09:31N 50°34' W 001°07'714.5
2018-May-17 09:01N 50°40' W 001°01'815.5
2018-May-17 08:30N 50°47' W 001°06'2 3.6
2018-May-17 08:00N 50°49' W 001°06'0 0.0
2018-May-17 07:31N 50°49' W 001°06'0 0.0
2018-May-17 07:01N 50°49' W 001°06'0 0.0
2018-May-17 06:30N 50°49' W 001°06'0 0.0
2018-May-17 06:01N 50°49' W 001°06'0 0.0
2018-May-17 05:31N 50°49' W 001°06'2 3.5
2018-May-17 05:00N 50°47' W 001°06'713.2
2018-May-17 04:31N 50°41' W 001°01'713.3
2018-May-17 04:00N 50°35' W 001°05'713.5
2018-May-17 03:30N 50°30' W 001°12'713.7
2018-May-17 03:01N 50°25' W 001°18'510.2
2018-May-17 02:30N 50°21' W 001°23'4 8.6
2018-May-17 02:01N 50°17' W 001°27'4 9.0
2018-May-17 01:31N 50°13' W 001°30'4 8.9
2018-May-17 01:01N 50°10' W 001°34'5 9.4
2018-May-17 00:30N 50°06' W 001°39'714.8
2018-May-17 00:01N 49°60' W 001°45'815.9
2018-May-16 23:30N 49°53' W 001°52'816.7
2018-May-16 23:01N 49°47' W 002°01'816.9
2018-May-16 22:30N 49°39' W 002°06'917.4
2018-May-16 22:01N 49°31' W 002°11'918.2
2018-May-16 21:30N 49°23' W 002°17'14 4.0
2018-May-16 18:07N 49°11' W 002°07'0 0.8
2018-May-16 17:59N 49°11' W 002°07'714.3
2018-May-16 17:30N 49°11' W 002°18'918.2
2018-May-16 17:00N 49°19' W 002°24'917.6
2018-May-16 16:30N 49°27' W 002°31'1 1.8
2018-May-16 16:00N 49°27' W 002°32'0 0.0
2018-May-16 15:30N 49°27' W 002°32'0 1.0
2018-May-16 15:01N 49°27' W 002°31'3 5.7
2018-May-16 14:31N 49°25' W 002°28'815.7
2018-May-16 14:00N 49°30' W 002°18'714.7
2018-May-16 13:30N 49°34' W 002°09'1118.6
2018-May-16 12:54N 49°45' W 002°03'819.6
2018-May-16 12:30N 49°51' W 001°57'918.7
2018-May-16 12:00N 49°59' W 001°48'917.9
2018-May-16 11:30N 50°06' W 001°40'917.0
2018-May-16 11:00N 50°13' W 001°32'816.4
2018-May-16 10:30N 50°20' W 001°25'815.9
2018-May-16 10:00N 50°26' W 001°18'815.4
2018-May-16 09:30N 50°33' W 001°12'714.8
2018-May-16 09:01N 50°39' W 001°05'714.4
2018-May-16 08:31N 50°46' W 001°06'3 5.1
2018-May-16 08:00N 50°49' W 001°06'0 0.0
2018-May-16 07:30N 50°49' W 001°06'0 0.0
2018-May-16 07:00N 50°49' W 001°06'0 0.0
2018-May-16 06:30N 50°49' W 001°06'0 0.0
2018-May-16 06:00N 50°49' W 001°06'0 0.0
2018-May-16 05:30N 50°49' W 001°06'2 3.9
2018-May-16 05:00N 50°47' W 001°06'713.6
2018-May-16 04:30N 50°41' W 000°59'713.8
2018-May-16 04:00N 50°36' W 001°05'713.1
2018-May-16 03:30N 50°30' W 001°11'714.1
2018-May-16 03:00N 50°25' W 001°18'714.1
2018-May-16 02:30N 50°19' W 001°24'713.8
2018-May-16 02:01N 50°13' W 001°31'713.8
2018-May-16 01:30N 50°08' W 001°37'713.6
2018-May-16 01:00N 50°02' W 001°43'714.1
2018-May-16 00:31N 49°56' W 001°49'714.1
2018-May-16 00:00N 49°50' W 001°55'713.8
2018-May-15 23:31N 49°45' W 002°01'713.4
2018-May-15 23:00N 49°39' W 002°06'815.1
2018-May-15 22:30N 49°33' W 002°13'816.2
2018-May-15 21:59N 49°28' W 002°23'611.6
2018-May-15 21:30N 49°27' W 002°32'0 0.0
2018-May-15 21:00N 49°27' W 002°32'0 0.0
2018-May-15 20:31N 49°27' W 002°32'0 0.0
2018-May-15 20:00N 49°27' W 002°32'510.0
2018-May-15 19:30N 49°23' W 002°28'917.4
2018-May-15 19:00N 49°15' W 002°22'815.6
2018-May-15 18:28N 49°10' W 002°12'3 1.3
2018-May-15 15:45N 49°11' W 002°07'2 6.4
2018-May-15 15:30N 49°10' W 002°09'816.1
2018-May-15 15:01N 49°13' W 002°20'714.0
2018-May-15 14:30N 49°20' W 002°22'815.9
2018-May-15 14:00N 49°26' W 002°14'816.6
2018-May-15 13:30N 49°34' W 002°10'918.4
2018-May-15 13:00N 49°42' W 002°03'1020.9
2018-May-15 12:30N 49°51' W 001°56'1019.2
2018-May-15 12:01N 49°60' W 001°49'918.4
2018-May-15 11:30N 50°07' W 001°40'917.8
2018-May-15 11:00N 50°14' W 001°32'917.2
2018-May-15 10:30N 50°21' W 001°24'816.7
2018-May-15 10:00N 50°28' W 001°16'816.1
2018-May-15 09:30N 50°35' W 001°09'815.8
2018-May-15 09:01N 50°41' W 001°03'714.7
2018-May-15 08:30N 50°48' W 001°07'1 2.2
2018-May-15 08:00N 50°49' W 001°06'0 0.0
2018-May-15 07:30N 50°49' W 001°06'0 0.0
2018-May-15 07:00N 50°49' W 001°06'0 0.0
2018-May-15 06:30N 50°49' W 001°06'0 0.0
2018-May-15 06:00N 50°49' W 001°06'1 2.6
2018-May-15 05:30N 50°48' W 001°07'612.0
2018-May-15 05:00N 50°43' W 001°01'815.3
2018-May-15 04:31N 50°36' W 001°05'816.3
2018-May-15 04:00N 50°29' W 001°12'815.9
2018-May-15 03:30N 50°22' W 001°19'815.4
2018-May-15 03:01N 50°16' W 001°26'714.5
2018-May-15 02:31N 50°10' W 001°32'713.7
2018-May-15 02:00N 50°04' W 001°39'713.5
2018-May-15 01:30N 49°59' W 001°45'713.2
2018-May-15 01:01N 49°54' W 001°51'713.1
2018-May-15 00:31N 49°49' W 001°58'611.8
2018-May-15 00:00N 49°44' W 002°03'611.3
2018-May-14 23:30N 49°39' W 002°06'714.0
2018-May-14 23:00N 49°32' W 002°11'815.6
2018-May-14 22:31N 49°25' W 002°15'815.9
2018-May-14 22:01N 49°18' W 002°20'11 4.2
2018-May-14 19:22N 49°11' W 002°07'0 0.2
2018-May-14 19:00N 49°11' W 002°07'611.3
2018-May-14 18:28N 49°10' W 002°16'715.3
2018-May-14 18:00N 49°16' W 002°22'816.8
2018-May-14 17:31N 49°24' W 002°28'4 8.7
2018-May-14 17:00N 49°27' W 002°32'0 0.0
2018-May-14 16:30N 49°27' W 002°32'0 0.0
2018-May-14 16:00N 49°27' W 002°32'0 0.0
2018-May-14 15:30N 49°27' W 002°32'0 0.0
2018-May-14 15:00N 49°27' W 002°32'3 6.5
2018-May-14 14:31N 49°25' W 002°28'815.7
2018-May-14 14:00N 49°30' W 002°18'612.2
2018-May-14 13:30N 49°33' W 002°10'713.8
2018-May-14 13:01N 49°39' W 002°06'1121.1
2018-May-14 12:30N 49°49' W 001°58'1019.5
2018-May-14 12:00N 49°57' W 001°49'918.6
2018-May-14 11:31N 50°05' W 001°43'918.3
2018-May-14 11:00N 50°12' W 001°34'917.8
2018-May-14 10:30N 50°19' W 001°25'917.4
2018-May-14 10:00N 50°27' W 001°18'917.0
2018-May-14 09:30N 50°34' W 001°11'816.6
2018-May-14 09:00N 50°40' W 001°03'713.4
2018-May-14 08:31N 50°47' W 001°06'2 3.8
2018-May-14 08:01N 50°49' W 001°06'0 0.0
2018-May-14 07:30N 50°49' W 001°06'0 0.0
2018-May-14 07:00N 50°49' W 001°06'0 0.0
2018-May-14 06:30N 50°49' W 001°06'0 0.0
2018-May-14 06:01N 50°49' W 001°06'0 0.0
2018-May-14 05:30N 50°49' W 001°06'0 0.0
2018-May-14 05:00N 50°49' W 001°06'0 0.0
2018-May-14 04:30N 50°49' W 001°06'0 0.0
2018-May-14 04:01N 50°49' W 001°06'0 0.0
2018-May-14 03:31N 50°49' W 001°06'0 0.0
2018-May-14 03:00N 50°49' W 001°06'0 0.0
2018-May-14 02:30N 50°49' W 001°06'0 0.0
2018-May-14 02:01N 50°49' W 001°06'0 0.0
2018-May-14 01:30N 50°49' W 001°06'0 0.0
2018-May-14 01:01N 50°49' W 001°06'0 0.0
2018-May-14 00:31N 50°49' W 001°06'0 0.0
2018-May-14 00:01N 50°49' W 001°06'0 0.0
2018-May-13 23:30N 50°49' W 001°06'0 0.0
2018-May-13 23:01N 50°49' W 001°06'0 0.0
2018-May-13 22:31N 50°49' W 001°06'0 0.0
2018-May-13 22:01N 50°49' W 001°06'0 0.0
2018-May-13 21:31N 50°49' W 001°06'0 0.0
2018-May-13 21:01N 50°49' W 001°06'0 0.0
2018-May-13 20:31N 50°49' W 001°06'0 0.0
2018-May-13 20:01N 50°49' W 001°06'0 0.0
2018-May-13 19:30N 50°49' W 001°06'0 0.0
2018-May-13 19:01N 50°49' W 001°06'0 0.0
2018-May-13 18:31N 50°49' W 001°06'0 0.0
2018-May-13 18:01N 50°49' W 001°06'0 0.0
2018-May-13 17:31N 50°49' W 001°06'0 0.0
2018-May-13 17:01N 50°49' W 001°06'0 0.0
2018-May-13 16:31N 50°49' W 001°06'0 0.0
2018-May-13 16:01N 50°49' W 001°06'0 0.0
2018-May-13 15:31N 50°49' W 001°06'0 0.0
2018-May-13 15:00N 50°49' W 001°06'0 0.0
2018-May-13 14:31N 50°49' W 001°06'0 0.0
2018-May-13 14:01N 50°49' W 001°06'0 0.0
2018-May-13 13:30N 50°49' W 001°06'0 0.0
2018-May-13 13:00N 50°49' W 001°06'0 0.0
2018-May-13 12:30N 50°49' W 001°06'0 0.0
2018-May-13 12:01N 50°49' W 001°06'0 0.0
2018-May-13 11:31N 50°49' W 001°06'0 0.0
2018-May-13 11:01N 50°49' W 001°06'0 0.0
2018-May-13 10:31N 50°49' W 001°06'0 0.0
2018-May-13 10:00N 50°49' W 001°06'0 0.0
2018-May-13 09:30N 50°49' W 001°06'0 0.0
2018-May-13 09:01N 50°49' W 001°06'0 0.0
2018-May-13 08:31N 50°49' W 001°06'0 0.0
2018-May-13 08:00N 50°49' W 001°06'0 0.0
2018-May-13 07:31N 50°49' W 001°06'0 0.0
2018-May-13 07:00N 50°49' W 001°06'0 0.0
2018-May-13 06:30N 50°49' W 001°06'0 0.0
2018-May-13 06:01N 50°49' W 001°06'0 0.0
2018-May-13 05:30N 50°49' W 001°06'1 2.8
2018-May-13 05:01N 50°47' W 001°07'713.5
2018-May-13 04:30N 50°42' W 001°01'815.5
2018-May-13 04:01N 50°35' W 001°06'1315.8
2018-May-13 03:10N 50°24' W 001°18'1116.6
2018-May-13 02:30N 50°15' W 001°28'3015.2
2018-May-13 00:33N 49°51' W 001°55'113.5
2018-May-13 00:30N 49°50' W 001°55'713.4
2018-May-13 00:00N 49°45' W 002°02'612.2
2018-May-12 23:31N 49°40' W 002°06'713.8
2018-May-12 23:00N 49°33' W 002°11'815.4
2018-May-12 22:31N 49°29' W 002°21'612.7
2018-May-12 22:00N 49°26' W 002°30'2 3.6
2018-May-12 21:30N 49°27' W 002°32'0 0.0
2018-May-12 21:00N 49°27' W 002°32'0 0.0
2018-May-12 20:30N 49°27' W 002°32'3 6.1
2018-May-12 20:00N 49°25' W 002°29'917.3
2018-May-12 19:31N 49°17' W 002°23'917.2
2018-May-12 19:00N 49°10' W 002°15'5 1.9
2018-May-12 16:13N 49°11' W 002°07'0 0.1
2018-May-12 15:49N 49°11' W 002°07'4 9.9
2018-May-12 15:27N 49°10' W 002°12'715.2
2018-May-12 15:00N 49°14' W 002°20'815.7
2018-May-12 14:30N 49°22' W 002°17'812.5
2018-May-12 13:50N 49°29' W 002°12'513.4
2018-May-12 13:29N 49°34' W 002°10'714.2
2018-May-12 12:59N 49°40' W 002°05'715.2
2018-May-12 12:30N 49°47' W 002°01'714.6
2018-May-12 12:01N 49°53' W 001°54'918.2
2018-May-12 11:30N 50°00' W 001°46'918.4
2018-May-12 11:00N 50°09' W 001°40'1018.2
2018-May-12 10:28N 50°17' W 001°32'918.4
2018-May-12 10:00N 50°23' W 001°23'917.8
2018-May-12 09:30N 50°30' W 001°14'917.9
2018-May-12 09:00N 50°38' W 001°06'815.1
2018-May-12 08:31N 50°45' W 001°05'4 7.4
2018-May-12 08:01N 50°49' W 001°06'0 0.0
2018-May-12 07:31N 50°49' W 001°06'0 0.0
2018-May-12 07:00N 50°49' W 001°06'0 0.0
2018-May-12 06:30N 50°49' W 001°06'0 0.0
2018-May-12 06:00N 50°49' W 001°06'  
Track history (hours):
 
Tides and Currents Weather Stations Pressure Air Temp Water Temp Dewpoint Dewpoint Depression Visibility Wind Speed Wind Dir Waves Ship Positions

Commodore Clipper

Operator: Condor Marine Services

Last reported at 2018-May-22 06:00 UTC. Time now 2018-May-22 06:27 UTC.
Position N 50°49' W 001°06'.

Length 130 m; draft 5.6 m.

Type: Ship. MMSI: 308094000.

Date/timePositionNaut miles runAvg speedWind from/ knotsBaromVisibWave heightAir tempDewpointWater temp
2018-May-22 06:00N 50°49' W 001°06'0 0.0
2018-May-22 05:30N 50°49' W 001°06'1 2.9
2018-May-22 05:01N 50°47' W 001°07'714.0
2018-May-22 04:30N 50°41' W 001°03'815.7
2018-May-22 04:00N 50°34' W 001°10'916.4
2018-May-22 03:29N 50°27' W 001°18'817.2
2018-May-22 03:00N 50°22' W 001°27'815.2
2018-May-22 02:30N 50°15' W 001°33'612.2
2018-May-22 02:00N 50°09' W 001°37'713.5
2018-May-22 01:30N 50°04' W 001°43'713.9
2018-May-22 01:00N 49°58' W 001°49'714.3
2018-May-22 00:31N 49°52' W 001°55'914.7
2018-May-21 23:53N 49°44' W 002°02'718.5
2018-May-21 23:30N 49°38' W 002°07'918.4
2018-May-21 23:00N 49°29' W 002°12'918.4
2018-May-21 22:31N 49°21' W 002°17'12 3.5
2018-May-21 18:57N 49°11' W 002°07'6 6.4
2018-May-21 18:03N 49°10' W 002°16'1 8.0
2018-May-21 17:55N 49°10' W 002°17'716.8
2018-May-21 17:30N 49°16' W 002°22'917.5
2018-May-21 17:00N 49°24' W 002°28'4 8.2
2018-May-21 16:30N 49°27' W 002°32'0 0.0
2018-May-21 16:00N 49°27' W 002°32'0 0.0
2018-May-21 15:30N 49°27' W 002°32'3 6.8
2018-May-21 14:59N 49°26' W 002°27'817.8
2018-May-21 14:31N 49°31' W 002°16'916.3
2018-May-21 13:58N 49°38' W 002°08'815.0
2018-May-21 13:26N 49°45' W 002°02'614.2
2018-May-21 13:00N 49°50' W 001°58'714.2
2018-May-21 12:30N 49°56' W 001°51'714.8
2018-May-21 12:00N 50°02' W 001°44'815.3
2018-May-21 11:30N 50°08' W 001°37'815.8
2018-May-21 11:00N 50°14' W 001°30'1316.4
2018-May-21 10:14N 50°25' W 001°19'416.4
2018-May-21 09:59N 50°28' W 001°14'816.8
2018-May-21 09:31N 50°34' W 001°07'815.8
2018-May-21 09:00N 50°41' W 001°01'714.7
2018-May-21 08:31N 50°47' W 001°07'1 2.8
2018-May-21 08:00N 50°49' W 001°06'0 0.0
2018-May-21 07:30N 50°49' W 001°06'0 0.0
2018-May-21 07:00N 50°49' W 001°06'0 0.0
2018-May-21 06:30N 50°49' W 001°06'0 0.0
2018-May-21 06:00N 50°49' W 001°06'0 0.0
2018-May-21 05:30N 50°49' W 001°06'0 0.0
2018-May-21 05:00N 50°49' W 001°06'0 0.0
2018-May-21 04:30N 50°49' W 001°06'0 0.0
2018-May-21 04:00N 50°49' W 001°06'0 0.0
2018-May-21 03:30N 50°49' W 001°06'0 0.0
2018-May-21 03:00N 50°49' W 001°06'0 0.0
2018-May-21 02:30N 50°49' W 001°06'0 0.0
2018-May-21 02:00N 50°49' W 001°06'0 0.0
2018-May-21 01:30N 50°49' W 001°06'0 0.0
2018-May-21 01:00N 50°49' W 001°06'0 0.0
2018-May-21 00:30N 50°49' W 001°06'0 0.0
2018-May-21 00:00N 50°49' W 001°06'0 0.0
2018-May-20 23:30N 50°49' W 001°06'0 0.0
2018-May-20 23:00N 50°49' W 001°06'0 0.0
2018-May-20 22:30N 50°49' W 001°06'0 0.0
2018-May-20 22:00N 50°49' W 001°06'0 0.0
2018-May-20 21:30N 50°49' W 001°06'0 0.0
2018-May-20 21:00N 50°49' W 001°06'0 0.0
2018-May-20 20:30N 50°49' W 001°06'0 0.0
2018-May-20 20:00N 50°49' W 001°06'0 0.0
2018-May-20 19:30N 50°49' W 001°06'0 0.0
2018-May-20 19:00N 50°49' W 001°06'0 0.0
2018-May-20 18:30N 50°49' W 001°06'0 0.0
2018-May-20 18:00N 50°49' W 001°06'0 0.0
2018-May-20 17:30N 50°49' W 001°06'0 0.0
2018-May-20 17:00N 50°49' W 001°06'0 0.0
2018-May-20 16:30N 50°49' W 001°06'0 0.0
2018-May-20 16:00N 50°49' W 001°06'0 0.0
2018-May-20 15:30N 50°49' W 001°06'0 0.0
2018-May-20 15:00N 50°49' W 001°06'0 0.0
2018-May-20 14:30N 50°49' W 001°06'0 0.0
2018-May-20 14:00N 50°49' W 001°06'0 0.0
2018-May-20 13:30N 50°49' W 001°06'0 0.0
2018-May-20 13:00N 50°49' W 001°06'0 0.0
2018-May-20 12:30N 50°49' W 001°06'0 0.0
2018-May-20 12:00N 50°49' W 001°06'0 0.0
2018-May-20 11:30N 50°49' W 001°06'0 0.0
2018-May-20 11:00N 50°49' W 001°06'0 0.0
2018-May-20 10:30N 50°49' W 001°06'0 0.0
2018-May-20 10:00N 50°49' W 001°06'0 0.0
2018-May-20 09:30N 50°49' W 001°06'0 0.0
2018-May-20 09:00N 50°49' W 001°06'0 0.0
2018-May-20 08:30N 50°49' W 001°06'0 0.0
2018-May-20 08:00N 50°49' W 001°06'0 0.0
2018-May-20 07:30N 50°49' W 001°06'0 0.0
2018-May-20 07:00N 50°49' W 001°06'0 0.0
2018-May-20 06:30N 50°49' W 001°06'0 0.0
2018-May-20 06:00N 50°49' W 001°06'0 0.0
2018-May-20 05:30N 50°49' W 001°06'2 3.8
2018-May-20 05:00N 50°47' W 001°06'713.7
2018-May-20 04:31N 50°40' W 001°04'714.6
2018-May-20 04:00N 50°33' W 001°08'713.6
2018-May-20 03:30N 50°29' W 001°17'611.4
2018-May-20 03:00N 50°24' W 001°22'611.6
2018-May-20 02:30N 50°19' W 001°26'612.1
2018-May-20 02:01N 50°14' W 001°30'612.7
2018-May-20 01:31N 50°09' W 001°36'713.3
2018-May-20 01:01N 50°03' W 001°41'713.9
2018-May-20 00:31N 49°57' W 001°47'714.4
2018-May-20 00:00N 49°52' W 001°54'815.6
2018-May-19 23:30N 49°45' W 002°01'815.9
2018-May-19 22:59N 49°38' W 002°07'714.8
2018-May-19 22:30N 49°31' W 002°11'815.4
2018-May-19 22:00N 49°24' W 002°15'919.1
2018-May-19 21:31N 49°15' W 002°21'714.1
2018-May-19 21:00N 49°10' W 002°14'5 9.5
2018-May-19 20:30N 49°11' W 002°07'0 0.0
2018-May-19 20:00N 49°11' W 002°07'0 0.0
2018-May-19 19:30N 49°11' W 002°07'0 0.0
2018-May-19 19:00N 49°11' W 002°07'0 0.1
2018-May-19 18:30N 49°11' W 002°07'815.1
2018-May-19 18:00N 49°11' W 002°18'918.7
2018-May-19 17:30N 49°20' W 002°25'917.6
2018-May-19 17:00N 49°27' W 002°31'0 0.8
2018-May-19 16:30N 49°27' W 002°32'0 0.0
2018-May-19 16:00N 49°27' W 002°32'0 0.0
2018-May-19 15:30N 49°27' W 002°32'2 3.2
2018-May-19 15:01N 49°27' W 002°30'816.2
2018-May-19 14:31N 49°30' W 002°18'918.5
2018-May-19 14:00N 49°37' W 002°09'1018.9
2018-May-19 13:29N 49°45' W 002°01'816.7
2018-May-19 13:00N 49°52' W 001°54'815.9
2018-May-19 12:31N 49°58' W 001°47'815.6
2018-May-19 12:00N 50°06' W 001°42'815.2
2018-May-19 11:31N 50°12' W 001°36'714.3
2018-May-19 11:00N 50°17' W 001°28'714.4
2018-May-19 10:31N 50°22' W 001°20'714.8
2018-May-19 10:00N 50°28' W 001°13'714.3
2018-May-19 09:30N 50°34' W 001°07'715.1
2018-May-19 09:00N 50°40' W 001°00'713.4
2018-May-19 08:30N 50°46' W 001°06'2 4.7
2018-May-19 08:00N 50°49' W 001°06'0 0.0
2018-May-19 07:30N 50°49' W 001°06'0 0.0
2018-May-19 07:00N 50°49' W 001°06'0 0.0
2018-May-19 06:30N 50°49' W 001°06'0 0.0
2018-May-19 06:00N 50°49' W 001°06'0 0.0
2018-May-19 05:30N 50°49' W 001°06'1 3.0
2018-May-19 05:01N 50°47' W 001°07'713.7
2018-May-19 04:31N 50°41' W 001°03'714.2
2018-May-19 04:01N 50°35' W 001°09'713.9
2018-May-19 03:30N 50°29' W 001°15'612.8
2018-May-19 03:00N 50°24' W 001°21'510.9
2018-May-19 02:30N 50°20' W 001°25'510.9
2018-May-19 02:00N 50°15' W 001°30'510.6
2018-May-19 01:30N 50°10' W 001°34'612.5
2018-May-19 01:00N 50°05' W 001°39'713.4
2018-May-19 00:30N 49°60' W 001°46'713.7
2018-May-19 00:00N 49°54' W 001°51'815.3
2018-May-18 23:31N 49°48' W 001°58'917.2
2018-May-18 22:58N 49°40' W 002°06'1018.6
2018-May-18 22:26N 49°31' W 002°11'819.4
2018-May-18 22:00N 49°23' W 002°16'918.8
2018-May-18 21:30N 49°14' W 002°21'816.4
2018-May-18 21:01N 49°10' W 002°10'2 2.9
2018-May-18 20:14N 49°11' W 002°07'0 0.0
2018-May-18 19:56N 49°11' W 002°07'0 0.0
2018-May-18 19:26N 49°11' W 002°07'0 0.1
2018-May-18 18:19N 49°11' W 002°07'411.5
2018-May-18 18:00N 49°10' W 002°12'917.8
2018-May-18 17:31N 49°16' W 002°22'918.5
2018-May-18 17:01N 49°24' W 002°28'4 8.0
2018-May-18 16:29N 49°27' W 002°32'0 0.0
2018-May-18 16:00N 49°27' W 002°32'0 0.0
2018-May-18 15:29N 49°27' W 002°32'1 2.1
2018-May-18 15:00N 49°27' W 002°30'510.3
2018-May-18 14:30N 49°28' W 002°22'1019.5
2018-May-18 14:01N 49°34' W 002°11'1020.9
2018-May-18 13:30N 49°44' W 002°04'918.5
2018-May-18 13:01N 49°52' W 001°56'917.0
2018-May-18 12:30N 49°59' W 001°49'816.2
2018-May-18 12:01N 50°05' W 001°41'815.8
2018-May-18 11:31N 50°11' W 001°34'1215.1
2018-May-18 10:42N 50°21' W 001°22'314.8
2018-May-18 10:30N 50°23' W 001°19'714.8
2018-May-18 10:00N 50°29' W 001°12'714.2
2018-May-18 09:30N 50°35' W 001°06'714.6
2018-May-18 09:01N 50°41' W 001°01'714.9
2018-May-18 08:30N 50°48' W 001°07'1 2.3
2018-May-18 08:00N 50°49' W 001°06'0 0.0
2018-May-18 07:30N 50°49' W 001°06'0 0.0
2018-May-18 07:00N 50°49' W 001°06'0 0.0
2018-May-18 06:30N 50°49' W 001°06'0 0.0
2018-May-18 06:00N 50°49' W 001°06'0 0.0
2018-May-18 05:30N 50°49' W 001°06'2 3.4
2018-May-18 05:00N 50°47' W 001°06'713.0
2018-May-18 04:31N 50°41' W 001°03'714.0
2018-May-18 04:01N 50°35' W 001°08'813.6
2018-May-18 03:25N 50°28' W 001°14'4 9.9
2018-May-18 03:00N 50°24' W 001°16'5 9.0
2018-May-18 02:29N 50°20' W 001°20'4 9.2
2018-May-18 02:00N 50°16' W 001°23'510.1
2018-May-18 01:30N 50°11' W 001°26'612.6
2018-May-18 01:00N 50°06' W 001°31'816.1
2018-May-18 00:30N 50°01' W 001°41'816.8
2018-May-18 00:01N 49°56' W 001°50'917.5
2018-May-17 23:30N 49°49' W 001°59'917.9
2018-May-17 22:59N 49°40' W 002°05'1218.2
2018-May-17 22:21N 49°30' W 002°12'719.0
2018-May-17 21:59N 49°23' W 002°16'1117.3
2018-May-17 21:22N 49°13' W 002°20'617.4
2018-May-17 21:01N 49°10' W 002°11'3 1.1
2018-May-17 18:20N 49°11' W 002°07'2 6.0
2018-May-17 18:00N 49°10' W 002°10'816.2
2018-May-17 17:31N 49°14' W 002°20'918.4
2018-May-17 17:01N 49°22' W 002°27'612.6
2018-May-17 16:30N 49°27' W 002°32'0 0.0
2018-May-17 16:00N 49°27' W 002°32'0 0.0
2018-May-17 15:30N 49°27' W 002°32'0 1.0
2018-May-17 15:00N 49°27' W 002°31'3 5.4
2018-May-17 14:30N 49°25' W 002°28'918.5
2018-May-17 14:00N 49°31' W 002°17'1020.0
2018-May-17 13:30N 49°39' W 002°07'1121.5
2018-May-17 13:00N 49°48' W 001°59'918.5
2018-May-17 12:30N 49°56' W 001°51'917.4
2018-May-17 12:00N 50°03' W 001°43'816.7
2018-May-17 11:30N 50°09' W 001°35'816.1
2018-May-17 11:01N 50°16' W 001°28'815.8
2018-May-17 10:31N 50°22' W 001°21'815.2
2018-May-17 10:01N 50°28' W 001°14'714.3
2018-May-17 09:31N 50°34' W 001°07'714.5
2018-May-17 09:01N 50°40' W 001°01'815.5
2018-May-17 08:30N 50°47' W 001°06'2 3.6
2018-May-17 08:00N 50°49' W 001°06'0 0.0
2018-May-17 07:31N 50°49' W 001°06'0 0.0
2018-May-17 07:01N 50°49' W 001°06'0 0.0
2018-May-17 06:30N 50°49' W 001°06'0 0.0
2018-May-17 06:01N 50°49' W 001°06'0 0.0
2018-May-17 05:31N 50°49' W 001°06'2 3.5
2018-May-17 05:00N 50°47' W 001°06'713.2
2018-May-17 04:31N 50°41' W 001°01'713.3
2018-May-17 04:00N 50°35' W 001°05'713.5
2018-May-17 03:30N 50°30' W 001°12'713.7
2018-May-17 03:01N 50°25' W 001°18'510.2
2018-May-17 02:30N 50°21' W 001°23'4 8.6
2018-May-17 02:01N 50°17' W 001°27'4 9.0
2018-May-17 01:31N 50°13' W 001°30'4 8.9
2018-May-17 01:01N 50°10' W 001°34'5 9.4
2018-May-17 00:30N 50°06' W 001°39'714.8
2018-May-17 00:01N 49°60' W 001°45'815.9
2018-May-16 23:30N 49°53' W 001°52'816.7
2018-May-16 23:01N 49°47' W 002°01'816.9
2018-May-16 22:30N 49°39' W 002°06'917.4
2018-May-16 22:01N 49°31' W 002°11'918.2
2018-May-16 21:30N 49°23' W 002°17'14 4.0
2018-May-16 18:07N 49°11' W 002°07'0 0.8
2018-May-16 17:59N 49°11' W 002°07'714.3
2018-May-16 17:30N 49°11' W 002°18'918.2
2018-May-16 17:00N 49°19' W 002°24'917.6
2018-May-16 16:30N 49°27' W 002°31'1 1.8
2018-May-16 16:00N 49°27' W 002°32'0 0.0
2018-May-16 15:30N 49°27' W 002°32'0 1.0
2018-May-16 15:01N 49°27' W 002°31'3 5.7
2018-May-16 14:31N 49°25' W 002°28'815.7
2018-May-16 14:00N 49°30' W 002°18'714.7
2018-May-16 13:30N 49°34' W 002°09'1118.6
2018-May-16 12:54N 49°45' W 002°03'819.6
2018-May-16 12:30N 49°51' W 001°57'918.7
2018-May-16 12:00N 49°59' W 001°48'917.9
2018-May-16 11:30N 50°06' W 001°40'917.0
2018-May-16 11:00N 50°13' W 001°32'816.4
2018-May-16 10:30N 50°20' W 001°25'815.9
2018-May-16 10:00N 50°26' W 001°18'815.4
2018-May-16 09:30N 50°33' W 001°12'714.8
2018-May-16 09:01N 50°39' W 001°05'714.4
2018-May-16 08:31N 50°46' W 001°06'3 5.1
2018-May-16 08:00N 50°49' W 001°06'0 0.0
2018-May-16 07:30N 50°49' W 001°06'0 0.0
2018-May-16 07:00N 50°49' W 001°06'0 0.0
2018-May-16 06:30N 50°49' W 001°06'0 0.0
2018-May-16 06:00N 50°49' W 001°06'0 0.0
2018-May-16 05:30N 50°49' W 001°06'2 3.9
2018-May-16 05:00N 50°47' W 001°06'713.6
2018-May-16 04:30N 50°41' W 000°59'713.8
2018-May-16 04:00N 50°36' W 001°05'713.1
2018-May-16 03:30N 50°30' W 001°11'714.1
2018-May-16 03:00N 50°25' W 001°18'714.1
2018-May-16 02:30N 50°19' W 001°24'713.8
2018-May-16 02:01N 50°13' W 001°31'713.8
2018-May-16 01:30N 50°08' W 001°37'713.6
2018-May-16 01:00N 50°02' W 001°43'714.1
2018-May-16 00:31N 49°56' W 001°49'714.1
2018-May-16 00:00N 49°50' W 001°55'713.8
2018-May-15 23:31N 49°45' W 002°01'713.4
2018-May-15 23:00N 49°39' W 002°06'815.1
2018-May-15 22:30N 49°33' W 002°13'816.2
2018-May-15 21:59N 49°28' W 002°23'611.6
2018-May-15 21:30N 49°27' W 002°32'0 0.0
2018-May-15 21:00N 49°27' W 002°32'0 0.0
2018-May-15 20:31N 49°27' W 002°32'0 0.0
2018-May-15 20:00N 49°27' W 002°32'510.0
2018-May-15 19:30N 49°23' W 002°28'917.4
2018-May-15 19:00N 49°15' W 002°22'815.6
2018-May-15 18:28N 49°10' W 002°12'3 1.3
2018-May-15 15:45N 49°11' W 002°07'2 6.4
2018-May-15 15:30N 49°10' W 002°09'816.1
2018-May-15 15:01N 49°13' W 002°20'714.0
2018-May-15 14:30N 49°20' W 002°22'815.9
2018-May-15 14:00N 49°26' W 002°14'816.6
2018-May-15 13:30N 49°34' W 002°10'918.4
2018-May-15 13:00N 49°42' W 002°03'1020.9
2018-May-15 12:30N 49°51' W 001°56'1019.2
2018-May-15 12:01N 49°60' W 001°49'918.4
2018-May-15 11:30N 50°07' W 001°40'917.8
2018-May-15 11:00N 50°14' W 001°32'917.2
2018-May-15 10:30N 50°21' W 001°24'816.7
2018-May-15 10:00N 50°28' W 001°16'816.1
2018-May-15 09:30N 50°35' W 001°09'815.8
2018-May-15 09:01N 50°41' W 001°03'714.7
2018-May-15 08:30N 50°48' W 001°07'1 2.2
2018-May-15 08:00N 50°49' W 001°06'0 0.0
2018-May-15 07:30N 50°49' W 001°06'0 0.0
2018-May-15 07:00N 50°49' W 001°06'0 0.0
2018-May-15 06:30N 50°49' W 001°06'0 0.0
2018-May-15 06:00N 50°49' W 001°06'1 2.6
2018-May-15 05:30N 50°48' W 001°07'612.0
2018-May-15 05:00N 50°43' W 001°01'815.3
2018-May-15 04:31N 50°36' W 001°05'816.3
2018-May-15 04:00N 50°29' W 001°12'815.9
2018-May-15 03:30N 50°22' W 001°19'815.4
2018-May-15 03:01N 50°16' W 001°26'714.5
2018-May-15 02:31N 50°10' W 001°32'713.7
2018-May-15 02:00N 50°04' W 001°39'713.5
2018-May-15 01:30N 49°59' W 001°45'713.2
2018-May-15 01:01N 49°54' W 001°51'713.1
2018-May-15 00:31N 49°49' W 001°58'611.8
2018-May-15 00:00N 49°44' W 002°03'611.3
2018-May-14 23:30N 49°39' W 002°06'714.0
2018-May-14 23:00N 49°32' W 002°11'815.6
2018-May-14 22:31N 49°25' W 002°15'815.9
2018-May-14 22:01N 49°18' W 002°20'11 4.2
2018-May-14 19:22N 49°11' W 002°07'0 0.2
2018-May-14 19:00N 49°11' W 002°07'611.3
2018-May-14 18:28N 49°10' W 002°16'715.3
2018-May-14 18:00N 49°16' W 002°22'816.8
2018-May-14 17:31N 49°24' W 002°28'4 8.7
2018-May-14 17:00N 49°27' W 002°32'0 0.0
2018-May-14 16:30N 49°27' W 002°32'0 0.0
2018-May-14 16:00N 49°27' W 002°32'0 0.0
2018-May-14 15:30N 49°27' W 002°32'0 0.0
2018-May-14 15:00N 49°27' W 002°32'3 6.5
2018-May-14 14:31N 49°25' W 002°28'815.7
2018-May-14 14:00N 49°30' W 002°18'612.2
2018-May-14 13:30N 49°33' W 002°10'713.8
2018-May-14 13:01N 49°39' W 002°06'1121.1
2018-May-14 12:30N 49°49' W 001°58'1019.5
2018-May-14 12:00N 49°57' W 001°49'918.6
2018-May-14 11:31N 50°05' W 001°43'918.3
2018-May-14 11:00N 50°12' W 001°34'917.8
2018-May-14 10:30N 50°19' W 001°25'917.4
2018-May-14 10:00N 50°27' W 001°18'917.0
2018-May-14 09:30N 50°34' W 001°11'816.6
2018-May-14 09:00N 50°40' W 001°03'713.4
2018-May-14 08:31N 50°47' W 001°06'2 3.8
2018-May-14 08:01N 50°49' W 001°06'0 0.0
2018-May-14 07:30N 50°49' W 001°06'0 0.0
2018-May-14 07:00N 50°49' W 001°06'0 0.0
2018-May-14 06:30N 50°49' W 001°06'0 0.0
2018-May-14 06:01N 50°49' W 001°06'0 0.0
2018-May-14 05:30N 50°49' W 001°06'0 0.0
2018-May-14 05:00N 50°49' W 001°06'0 0.0
2018-May-14 04:30N 50°49' W 001°06'0 0.0
2018-May-14 04:01N 50°49' W 001°06'0 0.0
2018-May-14 03:31N 50°49' W 001°06'0 0.0
2018-May-14 03:00N 50°49' W 001°06'0 0.0
2018-May-14 02:30N 50°49' W 001°06'0 0.0
2018-May-14 02:01N 50°49' W 001°06'0 0.0
2018-May-14 01:30N 50°49' W 001°06'0 0.0
2018-May-14 01:01N 50°49' W 001°06'0 0.0
2018-May-14 00:31N 50°49' W 001°06'0 0.0
2018-May-14 00:01N 50°49' W 001°06'0 0.0
2018-May-13 23:30N 50°49' W 001°06'0 0.0
2018-May-13 23:01N 50°49' W 001°06'0 0.0
2018-May-13 22:31N 50°49' W 001°06'0 0.0
2018-May-13 22:01N 50°49' W 001°06'0 0.0
2018-May-13 21:31N 50°49' W 001°06'0 0.0
2018-May-13 21:01N 50°49' W 001°06'0 0.0
2018-May-13 20:31N 50°49' W 001°06'0 0.0
2018-May-13 20:01N 50°49' W 001°06'0 0.0
2018-May-13 19:30N 50°49' W 001°06'0 0.0
2018-May-13 19:01N 50°49' W 001°06'0 0.0
2018-May-13 18:31N 50°49' W 001°06'0 0.0
2018-May-13 18:01N 50°49' W 001°06'0 0.0
2018-May-13 17:31N 50°49' W 001°06'0 0.0
2018-May-13 17:01N 50°49' W 001°06'0 0.0
2018-May-13 16:31N 50°49' W 001°06'0 0.0
2018-May-13 16:01N 50°49' W 001°06'0 0.0
2018-May-13 15:31N 50°49' W 001°06'0 0.0
2018-May-13 15:00N 50°49' W 001°06'0 0.0
2018-May-13 14:31N 50°49' W 001°06'0 0.0
2018-May-13 14:01N 50°49' W 001°06'0 0.0
2018-May-13 13:30N 50°49' W 001°06'0 0.0
2018-May-13 13:00N 50°49' W 001°06'0 0.0
2018-May-13 12:30N 50°49' W 001°06'0 0.0
2018-May-13 12:01N 50°49' W 001°06'0 0.0
2018-May-13 11:31N 50°49' W 001°06'0 0.0
2018-May-13 11:01N 50°49' W 001°06'0 0.0
2018-May-13 10:31N 50°49' W 001°06'0 0.0
2018-May-13 10:00N 50°49' W 001°06'0 0.0
2018-May-13 09:30N 50°49' W 001°06'0 0.0
2018-May-13 09:01N 50°49' W 001°06'0 0.0
2018-May-13 08:31N 50°49' W 001°06'0 0.0
2018-May-13 08:00N 50°49' W 001°06'0 0.0
2018-May-13 07:31N 50°49' W 001°06'0 0.0
2018-May-13 07:00N 50°49' W 001°06'0 0.0
2018-May-13 06:30N 50°49' W 001°06'0 0.0
2018-May-13 06:01N 50°49' W 001°06'0 0.0
2018-May-13 05:30N 50°49' W 001°06'1 2.8
2018-May-13 05:01N 50°47' W 001°07'713.5
2018-May-13 04:30N 50°42' W 001°01'815.5
2018-May-13 04:01N 50°35' W 001°06'1315.8
2018-May-13 03:10N 50°24' W 001°18'1116.6
2018-May-13 02:30N 50°15' W 001°28'3015.2
2018-May-13 00:33N 49°51' W 001°55'113.5
2018-May-13 00:30N 49°50' W 001°55'713.4
2018-May-13 00:00N 49°45' W 002°02'612.2
2018-May-12 23:31N 49°40' W 002°06'713.8
2018-May-12 23:00N 49°33' W 002°11'815.4
2018-May-12 22:31N 49°29' W 002°21'612.7
2018-May-12 22:00N 49°26' W 002°30'2 3.6
2018-May-12 21:30N 49°27' W 002°32'0 0.0
2018-May-12 21:00N 49°27' W 002°32'0 0.0
2018-May-12 20:30N 49°27' W 002°32'3 6.1
2018-May-12 20:00N 49°25' W 002°29'917.3
2018-May-12 19:31N 49°17' W 002°23'917.2
2018-May-12 19:00N 49°10' W 002°15'5 1.9
2018-May-12 16:13N 49°11' W 002°07'0 0.1
2018-May-12 15:49N 49°11' W 002°07'4 9.9
2018-May-12 15:27N 49°10' W 002°12'715.2
2018-May-12 15:00N 49°14' W 002°20'815.7
2018-May-12 14:30N 49°22' W 002°17'812.5
2018-May-12 13:50N 49°29' W 002°12'513.4
2018-May-12 13:29N 49°34' W 002°10'714.2
2018-May-12 12:59N 49°40' W 002°05'715.2
2018-May-12 12:30N 49°47' W 002°01'714.6
2018-May-12 12:01N 49°53' W 001°54'918.2
2018-May-12 11:30N 50°00' W 001°46'918.4
2018-May-12 11:00N 50°09' W 001°40'1018.2
2018-May-12 10:28N 50°17' W 001°32'918.4
2018-May-12 10:00N 50°23' W 001°23'917.8
2018-May-12 09:30N 50°30' W 001°14'917.9
2018-May-12 09:00N 50°38' W 001°06'815.1
2018-May-12 08:31N 50°45' W 001°05'4 7.4
2018-May-12 08:01N 50°49' W 001°06'0 0.0
2018-May-12 07:31N 50°49' W 001°06'0 0.0
2018-May-12 07:00N 50°49' W 001°06'0 0.0
2018-May-12 06:30N 50°49' W 001°06'0 0.0
2018-May-12 06:00N 50°49' W 001°06'  

Dump ship's entire track history